Observation data for Dora on 01/19/2019      Previous  Date  Next       Current Mesonet Observations  Soil Data  Daily Summary Page  Observations in Plain Language
KDR1 190600Z 34021G27KT 01/M01 A3012 RMK A01 T00101006  RH  090%=      5-min Rain = 0
KDR1 190605Z 34020G26KT 01/M01 A3013 RMK A01 T00101006  RH  090%=      5-min Rain = 0
KDR1 190610Z 34021G26KT 01/M01 A3013 RMK A01 T00091008  RH  089%=      5-min Rain = 0
KDR1 190615Z 35021G26KT 01/M01 A3014 RMK A01 T00071011  RH  088%=      5-min Rain = 0
KDR1 190620Z 35021G27KT 01/M02 A3014 RMK A01 T00061016  RH  086%=      5-min Rain = 0
KDR1 190625Z 35022KT 00/M02 A3014 RMK A01 T00041019  RH  085%=      5-min Rain = 0
KDR1 190630Z 35019G24KT 00/M02 A3014 RMK A01 T00021021  RH  085%=      5-min Rain = 0
KDR1 190635Z 35020G25KT 00/M02 A3014 RMK A01 T00021022  RH  085%=      5-min Rain = 0
KDR1 190640Z 35019G24KT 00/M02 A3014 RMK A01 T00021023  RH  084%=      5-min Rain = 0
KDR1 190645Z 35018G23KT 00/M02 A3015 RMK A01 T00011023  RH  084%=      5-min Rain = 0
KDR1 190650Z 35018KT 00/M02 A3015 RMK A01 T00011024  RH  084%=      5-min Rain = 0
KDR1 190655Z 35018KT 00/02 A3015 RMK A01 T00000-24  RH  085%=      5-min Rain = 0
KDR1 190700Z 35019G24KT 00/M02 A3015 RMK A01 T00011024  RH  084%=      5-min Rain = 0
KDR1 190705Z 35018KT 00/M02 A3015 RMK A01 T00011024  RH  084%=      5-min Rain = 0
KDR1 190710Z 35016KT 00/02 A3015 RMK A01 T00000-23  RH  085%=      5-min Rain = 0
KDR1 190715Z 34015KT 00/02 A3015 RMK A01 T00-00-23  RH  085%=      5-min Rain = 0
KDR1 190720Z 34015KT M00/M02 A3016 RMK A01 T10011023  RH  086%=      5-min Rain = 0
KDR1 190725Z 34016G21KT M00/M02 A3016 RMK A01 T10011023  RH  085%=      5-min Rain = 0
KDR1 190730Z 34017KT 00/02 A3016 RMK A01 T00000-24  RH  085%=      5-min Rain = 0
KDR1 190735Z 34016KT 00/M02 A3016 RMK A01 T00011024  RH  084%=      5-min Rain = 0
KDR1 190740Z 34015KT 00/02 A3016 RMK A01 T00-00-24  RH  085%=      5-min Rain = 0
KDR1 190745Z 34015KT 00/02 A3016 RMK A01 T00-00-24  RH  085%=      5-min Rain = 0
KDR1 190750Z 33015KT 00/02 A3016 RMK A01 T00-00-24  RH  084%=      5-min Rain = 0
KDR1 190755Z 33014KT M00/M03 A3016 RMK A01 T10011025  RH  085%=      5-min Rain = 0
KDR1 190800Z 33015KT M00/M03 A3016 RMK A01 T10011025  RH  084%=      5-min Rain = 0
KDR1 190805Z 33015KT 00/M03 A3017 RMK A01 T00011026  RH  083%=      5-min Rain = 0
KDR1 190810Z 33014KT 00/M03 A3017 RMK A01 T00011026  RH  082%=      5-min Rain = 0
KDR1 190815Z 33014KT 00/M03 A3017 RMK A01 T00011026  RH  083%=      5-min Rain = 0
KDR1 190820Z 33015KT 00/M03 A3018 RMK A01 T00011027  RH  082%=      5-min Rain = 0
KDR1 190825Z 32015KT M00/M03 A3018 RMK A01 T10011027  RH  083%=      5-min Rain = 0
KDR1 190830Z 32013KT M00/M03 A3018 RMK A01 T10041027  RH  085%=      5-min Rain = 0
KDR1 190835Z 32015KT M00/M03 A3018 RMK A01 T10041027  RH  085%=      5-min Rain = 0
KDR1 190840Z 32016KT M00/M03 A3018 RMK A01 T10011027  RH  083%=      5-min Rain = 0
KDR1 190845Z 32016G21KT 00/03 A3018 RMK A01 T00000-28  RH  082%=      5-min Rain = 0
KDR1 190850Z 32017G23KT 00/M03 A3018 RMK A01 T00011028  RH  081%=      5-min Rain = 0
KDR1 190855Z 32016G21KT 00/M03 A3018 RMK A01 T00021029  RH  080%=      5-min Rain = 0
KDR1 190900Z 32016KT 00/M03 A3018 RMK A01 T00031030  RH  079%=      5-min Rain = 0
KDR1 190905Z 32016KT 00/M03 A3019 RMK A01 T00031030  RH  079%=      5-min Rain = 0
KDR1 190910Z 32016KT 00/M03 A3019 RMK A01 T00041031  RH  078%=      5-min Rain = 0
KDR1 190915Z 32015KT 00/M03 A3019 RMK A01 T00031032  RH  078%=      5-min Rain = 0
KDR1 190920Z 32014KT 00/M03 A302 RMK A01 T00021032  RH  079%=      5-min Rain = 0
KDR1 190925Z 33015KT 00/M03 A302 RMK A01 T00011033  RH  079%=      5-min Rain = 0
KDR1 190930Z 34016KT 00/M03 A302 RMK A01 T00021034  RH  077%=      5-min Rain = 0
KDR1 190935Z 34016KT 00/M03 A302 RMK A01 T00021034  RH  077%=      5-min Rain = 0
KDR1 190940Z 34016KT 00/M03 A302 RMK A01 T00011034  RH  077%=      5-min Rain = 0
KDR1 190945Z 34016KT 00/M04 A302 RMK A01 T00021035  RH  077%=      5-min Rain = 0
KDR1 190950Z 34016KT 00/M04 A302 RMK A01 T00021035  RH  077%=      5-min Rain = 0
KDR1 190955Z 34015KT 00/M04 A302 RMK A01 T00011035  RH  077%=      5-min Rain = 0
KDR1 191000Z 34015KT 00/04 A302 RMK A01 T00-00-35  RH  078%=      5-min Rain = 0
KDR1 191005Z 34015KT M00/M04 A302 RMK A01 T10011035  RH  078%=      5-min Rain = 0
KDR1 191010Z 34014KT M00/M04 A302 RMK A01 T10031035  RH  079%=      5-min Rain = 0
KDR1 191015Z 34012KT M01/M04 A302 RMK A01 T10051035  RH  081%=      5-min Rain = 0
KDR1 191020Z 33013KT M01/M04 A302 RMK A01 T10061036  RH  081%=      5-min Rain = 0
KDR1 191025Z 33013KT M00/M04 A302 RMK A01 T10041036  RH  079%=      5-min Rain = 0
KDR1 191030Z 33013KT M00/M04 A3021 RMK A01 T10031037  RH  078%=      5-min Rain = 0
KDR1 191035Z 33013KT M00/M04 A302 RMK A01 T10041038  RH  078%=      5-min Rain = 0
KDR1 191040Z 33012KT M01/M04 A302 RMK A01 T10061038  RH  079%=      5-min Rain = 0
KDR1 191045Z 33012KT M01/M04 A302 RMK A01 T10071038  RH  080%=      5-min Rain = 0
KDR1 191050Z 32012KT M01/M04 A302 RMK A01 T10081039  RH  080%=      5-min Rain = 0
KDR1 191055Z 32012KT M01/M04 A302 RMK A01 T10071040  RH  079%=      5-min Rain = 0
KDR1 191100Z 32011KT M01/M04 A302 RMK A01 T10101041  RH  080%=      5-min Rain = 0
KDR1 191105Z 32011KT M01/M04 A3021 RMK A01 T10111041  RH  081%=      5-min Rain = 0
KDR1 191110Z 31011KT M01/M04 A3021 RMK A01 T10131042  RH  081%=      5-min Rain = 0
KDR1 191115Z 31011KT M01/M04 A3021 RMK A01 T10141042  RH  082%=      5-min Rain = 0
KDR1 191120Z 31013KT M01/M04 A3021 RMK A01 T10121042  RH  080%=      5-min Rain = 0
KDR1 191125Z 31014KT M01/M04 A3021 RMK A01 T10121043  RH  080%=      5-min Rain = 0
KDR1 191130Z 31014KT M01/M04 A3021 RMK A01 T10091042  RH  079%=      5-min Rain = 0
KDR1 191135Z 32015KT M01/M04 A3021 RMK A01 T10061041  RH  077%=      5-min Rain = 0
KDR1 191140Z 31014KT M01/M04 A3021 RMK A01 T10071042  RH  077%=      5-min Rain = 0
KDR1 191145Z 31014KT M01/M04 A3022 RMK A01 T10081043  RH  078%=      5-min Rain = 0
KDR1 191150Z 31014KT M01/M04 A3022 RMK A01 T10071042  RH  078%=      5-min Rain = 0
KDR1 191155Z 32013KT M01/M04 A3022 RMK A01 T10081043  RH  078%=      5-min Rain = 0
KDR1 191200Z 31012KT M01/M04 A3022 RMK A01 T10111043  RH  079%=      5-min Rain = 0
KDR1 191205Z 31011KT M01/M04 A3023 RMK A01 T10121044  RH  079%=      5-min Rain = 0
KDR1 191210Z 31011KT M01/M05 A3023 RMK A01 T10141045  RH  080%=      5-min Rain = 0
KDR1 191215Z 31011KT M02/M05 A3023 RMK A01 T10171046  RH  081%=      5-min Rain = 0
KDR1 191220Z 31010KT M02/M05 A3023 RMK A01 T10181046  RH  082%=      5-min Rain = 0
KDR1 191225Z 31010KT M02/M05 A3023 RMK A01 T10201047  RH  082%=      5-min Rain = 0
KDR1 191230Z 31010KT M02/M05 A3024 RMK A01 T10201047  RH  082%=      5-min Rain = 0
KDR1 191235Z 30010KT M02/M05 A3024 RMK A01 T10191046  RH  082%=      5-min Rain = 0
KDR1 191240Z 30010KT M02/M05 A3024 RMK A01 T10191046  RH  082%=      5-min Rain = 0
KDR1 191245Z 31010KT M02/M05 A3024 RMK A01 T10191046  RH  082%=      5-min Rain = 0
KDR1 191250Z 31010KT M02/M05 A3024 RMK A01 T10201046  RH  082%=      5-min Rain = 0
KDR1 191255Z 31011KT M02/M05 A3024 RMK A01 T10201046  RH  083%=      5-min Rain = 0
KDR1 191300Z 30011KT M02/M05 A3025 RMK A01 T10201046  RH  083%=      5-min Rain = 0
KDR1 191305Z 30012KT M02/M04 A3025 RMK A01 T10181044  RH  083%=      5-min Rain = 0
KDR1 191310Z 30012KT M02/M04 A3025 RMK A01 T10171044  RH  082%=      5-min Rain = 0
KDR1 191315Z 30012KT M01/M04 A3025 RMK A01 T10141043  RH  081%=      5-min Rain = 0
KDR1 191320Z 30012KT M01/M04 A3026 RMK A01 T10141044  RH  081%=      5-min Rain = 0
KDR1 191325Z 31012KT M01/M04 A3026 RMK A01 T10141044  RH  080%=      5-min Rain = 0
KDR1 191330Z 31011KT M01/M05 A3026 RMK A01 T10131045  RH  079%=      5-min Rain = 0
KDR1 191335Z 31010KT M01/M05 A3027 RMK A01 T10131045  RH  079%=      5-min Rain = 0
KDR1 191340Z 31010KT M01/M05 A3027 RMK A01 T10141045  RH  080%=      5-min Rain = 0
KDR1 191345Z 31010KT M01/M05 A3027 RMK A01 T10141046  RH  079%=      5-min Rain = 0
KDR1 191350Z 31010KT M01/M05 A3027 RMK A01 T10141046  RH  079%=      5-min Rain = 0
KDR1 191355Z 30010KT M02/M05 A3027 RMK A01 T10151047  RH  079%=      5-min Rain = 0
KDR1 191400Z 30011KT M01/M05 A3027 RMK A01 T10141046  RH  079%=      5-min Rain = 0
KDR1 191405Z 30012KT M01/M05 A3027 RMK A01 T10121045  RH  078%=      5-min Rain = 0
KDR1 191410Z 30012KT M01/M05 A3027 RMK A01 T10091045  RH  077%=      5-min Rain = 0
KDR1 191415Z 30012KT M01/M04 A3028 RMK A01 T10051044  RH  076%=      5-min Rain = 0
KDR1 191420Z 30012KT M00/M04 A3028 RMK A01 T10031043  RH  074%=      5-min Rain = 0
KDR1 191425Z 30012KT M00/M04 A3028 RMK A01 T10011043  RH  074%=      5-min Rain = 0
KDR1 191430Z 30009KT M00/M04 A3028 RMK A01 T10011041  RH  075%=      5-min Rain = 0
KDR1 191435Z 30009KT 00/04 A3029 RMK A01 T00000-40  RH  075%=      5-min Rain = 0
KDR1 191440Z 30010KT 00/M04 A3029 RMK A01 T00021039  RH  074%=      5-min Rain = 0
KDR1 191445Z 30009KT 00/M04 A3029 RMK A01 T00021039  RH  074%=      5-min Rain = 0
KDR1 191450Z 30010KT 00/M04 A3029 RMK A01 T00041038  RH  074%=      5-min Rain = 0
KDR1 191455Z 30010KT 01/M04 A3029 RMK A01 T00081036  RH  073%=      5-min Rain = 0
KDR1 191500Z 30010KT 01/M04 A303 RMK A01 T00121036  RH  071%=      5-min Rain = 0
KDR1 191505Z 30011KT 02/M03 A303 RMK A01 T00151034  RH  070%=      5-min Rain = 0
KDR1 191510Z 29012KT 02/M04 A303 RMK A01 T00181035  RH  068%=      5-min Rain = 0
KDR1 191515Z 29011KT 03/M03 A3031 RMK A01 T00251033  RH  066%=      5-min Rain = 0
KDR1 191520Z 30012KT 03/M04 A3031 RMK A01 T00291035  RH  063%=      5-min Rain = 0
KDR1 191525Z 30012KT 03/M03 A3031 RMK A01 T00301033  RH  064%=      5-min Rain = 0
KDR1 191530Z 30012KT 03/M03 A3031 RMK A01 T00301032  RH  064%=      5-min Rain = 0
KDR1 191535Z 30011KT 03/M03 A3032 RMK A01 T00311029  RH  065%=      5-min Rain = 0
KDR1 191540Z 30010KT 03/M03 A3032 RMK A01 T00331027  RH  065%=      5-min Rain = 0
KDR1 191545Z 30010KT 04/M03 A3032 RMK A01 T00361026  RH  065%=      5-min Rain = 0
KDR1 191550Z 30010KT 04/M03 A3032 RMK A01 T00391026  RH  063%=      5-min Rain = 0
KDR1 191555Z 30010KT 04/M03 A3032 RMK A01 T00421025  RH  062%=      5-min Rain = 0
KDR1 191600Z 30010KT 05/M02 A3032 RMK A01 T00451021  RH  063%=      5-min Rain = 0
KDR1 191605Z 29009KT 05/M02 A3032 RMK A01 T00471022  RH  061%=      5-min Rain = 0
KDR1 191610Z 29009KT 05/M02 A3032 RMK A01 T00501021  RH  060%=      5-min Rain = 0
KDR1 191615Z 30008KT 05/M02 A3032 RMK A01 T00541018  RH  060%=      5-min Rain = 0
KDR1 191620Z 29008KT 06/M02 A3032 RMK A01 T00551019  RH  059%=      5-min Rain = 0
KDR1 191625Z 30008KT 06/M02 A3032 RMK A01 T00561017  RH  060%=      5-min Rain = 0
KDR1 191630Z 31008KT 06/M01 A3032 RMK A01 T00591013  RH  060%=      5-min Rain = 0
KDR1 191635Z 31008G13KT 06/M02 A3032 RMK A01 T00611017  RH  058%=      5-min Rain = 0
KDR1 191640Z 31009KT 06/M01 A3032 RMK A01 T00631014  RH  059%=      5-min Rain = 0
KDR1 191645Z 32008KT 06/M02 A3032 RMK A01 T00631019  RH  056%=      5-min Rain = 0
KDR1 191650Z 32007KT 06/M03 A3032 RMK A01 T00621025  RH  054%=      5-min Rain = 0
KDR1 191655Z 33006KT 07/M03 A3033 RMK A01 T00651025  RH  053%=      5-min Rain = 0
KDR1 191700Z 33008G13KT 07/M03 A3033 RMK A01 T00651026  RH  052%=      5-min Rain = 0
KDR1 191705Z 32007KT 07/M02 A3033 RMK A01 T00661023  RH  053%=      5-min Rain = 0
KDR1 191710Z 34007KT 07/M03 A3033 RMK A01 T00671025  RH  052%=      5-min Rain = 0
KDR1 191715Z 35007KT 07/M03 A3033 RMK A01 T00691026  RH  051%=      5-min Rain = 0
KDR1 191720Z 35007KT 07/M02 A3033 RMK A01 T00741022  RH  051%=      5-min Rain = 0
KDR1 191725Z 33006KT 07/M03 A3033 RMK A01 T00731025  RH  050%=      5-min Rain = 0
KDR1 191730Z 33006KT 07/M02 A3033 RMK A01 T00741024  RH  050%=      5-min Rain = 0
KDR1 191735Z 32006KT 08/M02 A3032 RMK A01 T00771022  RH  050%=      5-min Rain = 0
KDR1 191740Z 33005KT 08/M03 A3032 RMK A01 T00761026  RH  049%=      5-min Rain = 0
KDR1 191745Z 31005KT 08/M02 A3032 RMK A01 T00791023  RH  049%=      5-min Rain = 0
KDR1 191750Z 31005KT 08/M02 A3033 RMK A01 T00801024  RH  048%=      5-min Rain = 0
KDR1 191755Z 32004KT 08/M03 A3033 RMK A01 T00831025  RH  047%=      5-min Rain = 0
KDR1 191800Z 28003KT 08/M03 A3032 RMK A01 T00811031  RH  045%=      5-min Rain = 0
KDR1 191805Z 32006KT 09/M02 A3032 RMK A01 T00851022  RH  047%=      5-min Rain = 0
KDR1 191810Z 28003KT 09/M03 A3032 RMK A01 T00871027  RH  045%=      5-min Rain = 0
KDR1 191815Z 31005KT 09/M03 A3032 RMK A01 T00881025  RH  045%=      5-min Rain = 0
KDR1 191820Z 30005KT 09/M03 A3032 RMK A01 T00861030  RH  044%=      5-min Rain = 0
KDR1 191825Z 28003KT 09/M03 A3032 RMK A01 T00881033  RH  043%=      5-min Rain = 0
KDR1 191830Z 25006KT 09/M03 A3032 RMK A01 T00931025  RH  044%=      5-min Rain = 0
KDR1 191835Z 23005KT 09/M03 A3031 RMK A01 T00931029  RH  042%=      5-min Rain = 0
KDR1 191840Z 26005KT 10/M03 A3031 RMK A01 T00971025  RH  043%=      5-min Rain = 0
KDR1 191845Z 26003KT 10/M03 A3031 RMK A01 T00991034  RH  039%=      5-min Rain = 0
KDR1 191850Z 26002KT 10/M04 A3031 RMK A01 T01001035  RH  039%=      5-min Rain = 0
KDR1 191855Z 30004KT 10/M03 A3031 RMK A01 T01001032  RH  040%=      5-min Rain = 0
KDR1 191900Z 32004KT 10/M04 A303 RMK A01 T01001038  RH  038%=      5-min Rain = 0
KDR1 191905Z 31002KT 10/M04 A303 RMK A01 T01001040  RH  037%=      5-min Rain = 0
KDR1 191910Z 29005KT 10/M04 A3029 RMK A01 T01041038  RH  037%=      5-min Rain = 0
KDR1 191915Z 25004KT 10/M04 A3029 RMK A01 T01021041  RH  037%=      5-min Rain = 0
KDR1 191920Z 25003KT 11/M05 A3029 RMK A01 T01061047  RH  034%=      5-min Rain = 0
KDR1 191925Z 25005G11KT 11/M05 A3029 RMK A01 T01071048  RH  034%=      5-min Rain = 0
KDR1 191930Z 26005G10KT 11/M05 A3029 RMK A01 T01091054  RH  031%=      5-min Rain = 0
KDR1 191935Z 25005G10KT 11/M06 A3028 RMK A01 T01111055  RH  031%=      5-min Rain = 0
KDR1 191940Z 26004G9KT 11/M06 A3028 RMK A01 T01121063  RH  029%=      5-min Rain = 0
KDR1 191945Z 31002KT 11/M07 A3028 RMK A01 T01111068  RH  028%=      5-min Rain = 0
KDR1 191950Z 28006KT 11/M07 A3028 RMK A01 T01141066  RH  028%=      5-min Rain = 0
KDR1 191955Z 25005KT 12/M06 A3027 RMK A01 T01171063  RH  028%=      5-min Rain = 0
KDR1 192000Z 24003KT 12/M06 A3027 RMK A01 T01151064  RH  028%=      5-min Rain = 0
KDR1 192005Z 31008KT 12/M06 A3027 RMK A01 T01151061  RH  029%=      5-min Rain = 0
KDR1 192010Z 31005KT 12/M06 A3026 RMK A01 T01151061  RH  029%=      5-min Rain = 0
KDR1 192015Z 25006KT 12/M06 A3026 RMK A01 T01191057  RH  029%=      5-min Rain = 0
KDR1 192020Z 22003KT 12/M06 A3026 RMK A01 T01201063  RH  027%=      5-min Rain = 0
KDR1 192025Z 21004G9KT 12/M06 A3025 RMK A01 T01231062  RH  027%=      5-min Rain = 0
KDR1 192030Z 24007KT 12/M06 A3025 RMK A01 T01191059  RH  028%=      5-min Rain = 0
KDR1 192035Z 22004KT 12/M06 A3025 RMK A01 T01191062  RH  028%=      5-min Rain = 0
KDR1 192040Z 23005KT 12/M07 A3025 RMK A01 T01191066  RH  027%=      5-min Rain = 0
KDR1 192045Z 26006KT 12/M06 A3025 RMK A01 T01181064  RH  027%=      5-min Rain = 0
KDR1 192050Z 26005KT 12/M06 A3025 RMK A01 T01201061  RH  028%=      5-min Rain = 0
KDR1 192055Z 27006G11KT 12/M06 A3025 RMK A01 T01201062  RH  027%=      5-min Rain = 0
KDR1 192100Z 26004KT 12/M07 A3025 RMK A01 T01191065  RH  027%=      5-min Rain = 0
KDR1 192105Z 25007G12KT 12/M06 A3024 RMK A01 T01201061  RH  028%=      5-min Rain = 0
KDR1 192110Z 21007KT 12/M07 A3024 RMK A01 T01161066  RH  027%=      5-min Rain = 0
KDR1 192115Z 21004KT 12/M07 A3024 RMK A01 T01191066  RH  027%=      5-min Rain = 0
KDR1 192120Z 24005KT 12/M06 A3024 RMK A01 T01221063  RH  027%=      5-min Rain = 0
KDR1 192125Z 22004KT 12/M07 A3024 RMK A01 T01191067  RH  027%=      5-min Rain = 0
KDR1 192130Z 22006KT 12/M06 A3024 RMK A01 T01191064  RH  027%=      5-min Rain = 0
KDR1 192135Z 23005G10KT 12/M07 A3024 RMK A01 T01201067  RH  026%=      5-min Rain = 0
KDR1 192140Z 20007KT 12/M07 A3023 RMK A01 T01211067  RH  026%=      5-min Rain = 0
KDR1 192145Z 23009KT 12/M07 A3023 RMK A01 T01191066  RH  027%=      5-min Rain = 0
KDR1 192150Z 23006G11KT 12/M07 A3024 RMK A01 T01201069  RH  026%=      5-min Rain = 0
KDR1 192155Z 24008KT 12/M07 A3024 RMK A01 T01211065  RH  027%=      5-min Rain = 0
KDR1 192200Z 22006KT 12/M07 A3024 RMK A01 T01181071  RH  026%=      5-min Rain = 0
KDR1 192205Z 20005KT 12/M07 A3024 RMK A01 T01181073  RH  026%=      5-min Rain = 0
KDR1 192210Z 21007KT 12/M07 A3024 RMK A01 T01221073  RH  025%=      5-min Rain = 0
KDR1 192215Z 24006KT 12/M07 A3024 RMK A01 T01221073  RH  025%=      5-min Rain = 0
KDR1 192220Z 26005KT 12/M08 A3024 RMK A01 T01231076  RH  024%=      5-min Rain = 0
KDR1 192225Z 24008G13KT 12/M08 A3024 RMK A01 T01211078  RH  024%=      5-min Rain = 0
KDR1 192230Z 27009KT 12/M08 A3024 RMK A01 T01181083  RH  024%=      5-min Rain = 0
KDR1 192235Z 26007KT 12/M08 A3024 RMK A01 T01181084  RH  023%=      5-min Rain = 0
KDR1 192240Z 27007KT 12/M09 A3024 RMK A01 T01181088  RH  023%=      5-min Rain = 0
KDR1 192245Z 25006KT 12/M09 A3024 RMK A01 T01171091  RH  022%=      5-min Rain = 0
KDR1 192250Z 24007KT 12/M09 A3024 RMK A01 T01191086  RH  023%=      5-min Rain = 0
KDR1 192255Z 24006KT 12/M09 A3024 RMK A01 T01181087  RH  023%=      5-min Rain = 0
KDR1 192300Z 23006KT 12/M08 A3024 RMK A01 T01181084  RH  024%=      5-min Rain = 0
KDR1 192305Z 23007KT 12/M09 A3024 RMK A01 T01161085  RH  024%=      5-min Rain = 0
KDR1 192310Z 25008KT 11/M08 A3024 RMK A01 T01141084  RH  024%=      5-min Rain = 0
KDR1 192315Z 24007KT 11/M08 A3024 RMK A01 T01131082  RH  025%=      5-min Rain = 0
KDR1 192320Z 24006KT 11/M08 A3024 RMK A01 T01121083  RH  024%=      5-min Rain = 0
KDR1 192325Z 24007KT 11/M09 A3023 RMK A01 T01111085  RH  024%=      5-min Rain = 0
KDR1 192330Z 24007KT 11/M09 A3024 RMK A01 T01091086  RH  025%=      5-min Rain = 0
KDR1 192335Z 23006KT 11/M09 A3023 RMK A01 T01071088  RH  024%=      5-min Rain = 0
KDR1 192340Z 23004KT 11/M08 A3023 RMK A01 T01061084  RH  025%=      5-min Rain = 0
KDR1 192345Z 23004KT 11/M08 A3023 RMK A01 T01051082  RH  026%=      5-min Rain = 0
KDR1 192350Z 23004KT 10/M08 A3023 RMK A01 T01011079  RH  027%=      5-min Rain = 0
KDR1 192355Z 21005KT 10/M08 A3023 RMK A01 T00961075  RH  029%=      5-min Rain = 0
KDR1 200000Z 21005KT 09/M08 A3023 RMK A01 T00881077  RH  030%=      5-min Rain = 0
KDR1 200005Z 20005KT 08/M08 A3023 RMK A01 T00821078  RH  031%=      5-min Rain = 0
KDR1 200010Z 20005KT 08/M08 A3023 RMK A01 T00751078  RH  033%=      5-min Rain = 0
KDR1 200015Z 19005KT 07/M08 A3023 RMK A01 T00691083  RH  033%=      5-min Rain = 0
KDR1 200020Z 18004KT 07/M09 A3023 RMK A01 T00651088  RH  032%=      5-min Rain = 0
KDR1 200025Z 18004KT 06/M09 A3023 RMK A01 T00611089  RH  033%=      5-min Rain = 0
KDR1 200030Z 18004KT 06/M09 A3023 RMK A01 T00591089  RH  034%=      5-min Rain = 0
KDR1 200035Z 18005KT 06/M09 A3024 RMK A01 T00571089  RH  034%=      5-min Rain = 0
KDR1 200040Z 18005KT 06/M09 A3024 RMK A01 T00551089  RH  035%=      5-min Rain = 0
KDR1 200045Z 17005KT 05/M09 A3024 RMK A01 T00481088  RH  037%=      5-min Rain = 0
KDR1 200050Z 16005KT 05/M09 A3024 RMK A01 T00461087  RH  037%=      5-min Rain = 0
KDR1 200055Z 16006KT 05/M09 A3023 RMK A01 T00461089  RH  037%=      5-min Rain = 0
KDR1 200100Z 16008KT 04/M09 A3023 RMK A01 T00391088  RH  039%=      5-min Rain = 0
KDR1 200105Z 16008KT 04/M09 A3022 RMK A01 T00391085  RH  040%=      5-min Rain = 0
KDR1 200110Z 16009KT 04/M09 A3022 RMK A01 T00371085  RH  040%=      5-min Rain = 0
KDR1 200115Z 16009KT 04/M09 A3022 RMK A01 T00361085  RH  041%=      5-min Rain = 0
KDR1 200120Z 16009KT 03/M09 A3022 RMK A01 T00341085  RH  041%=      5-min Rain = 0
KDR1 200125Z 16009KT 03/M09 A3022 RMK A01 T00291085  RH  043%=      5-min Rain = 0
KDR1 200130Z 16008KT 03/M09 A3023 RMK A01 T00301086  RH  042%=      5-min Rain = 0
KDR1 200135Z 17008KT 03/M09 A3024 RMK A01 T00291087  RH  042%=      5-min Rain = 0
KDR1 200140Z 17008KT 03/M09 A3024 RMK A01 T00331086  RH  041%=      5-min Rain = 0
KDR1 200145Z 18009KT 04/M09 A3025 RMK A01 T00371087  RH  040%=      5-min Rain = 0
KDR1 200150Z 18008KT 03/M09 A3025 RMK A01 T00341087  RH  041%=      5-min Rain = 0
KDR1 200155Z 19007KT 04/M08 A3026 RMK A01 T00351084  RH  041%=      5-min Rain = 0
KDR1 200200Z 19007KT 02/M08 A3026 RMK A01 T00241078  RH  047%=      5-min Rain = 0
KDR1 200205Z 19008KT 04/M08 A3026 RMK A01 T00371082  RH  041%=      5-min Rain = 0
KDR1 200210Z 20007KT 03/M08 A3027 RMK A01 T00331079  RH  044%=      5-min Rain = 0
KDR1 200215Z 20009KT 03/M08 A3026 RMK A01 T00281078  RH  045%=      5-min Rain = 0
KDR1 200220Z 20008KT 03/M08 A3027 RMK A01 T00271077  RH  046%=      5-min Rain = 0
KDR1 200225Z 20007KT 02/M07 A3027 RMK A01 T00171073  RH  051%=      5-min Rain = 0
KDR1 200230Z 20010KT 03/M08 A3026 RMK A01 T00261078  RH  046%=      5-min Rain = 0
KDR1 200235Z 19010KT 02/M08 A3025 RMK A01 T00191078  RH  049%=      5-min Rain = 0
KDR1 200240Z 19010KT 02/M08 A3025 RMK A01 T00201079  RH  048%=      5-min Rain = 0
KDR1 200245Z 19010KT 03/M08 A3025 RMK A01 T00251079  RH  046%=      5-min Rain = 0
KDR1 200250Z 19010KT 02/M08 A3025 RMK A01 T00191077  RH  049%=      5-min Rain = 0
KDR1 200255Z 19010KT 02/M08 A3025 RMK A01 T00171078  RH  049%=      5-min Rain = 0
KDR1 200300Z 18009KT 02/M08 A3025 RMK A01 T00171079  RH  049%=      5-min Rain = 0
KDR1 200305Z 18008KT 02/M08 A3025 RMK A01 T00191080  RH  048%=      5-min Rain = 0
KDR1 200310Z 18008KT 01/M08 A3024 RMK A01 T00141081  RH  049%=      5-min Rain = 0
KDR1 200315Z 19008KT 01/M08 A3025 RMK A01 T00131081  RH  049%=      5-min Rain = 0
KDR1 200320Z 20008KT 01/M08 A3025 RMK A01 T00121080  RH  050%=      5-min Rain = 0
KDR1 200325Z 21005KT 01/M08 A3025 RMK A01 T00141075  RH  051%=      5-min Rain = 0
KDR1 200330Z 21007KT 01/M08 A3025 RMK A01 T00131075  RH  052%=      5-min Rain = 0
KDR1 200335Z 22008KT 01/M07 A3025 RMK A01 T00121073  RH  053%=      5-min Rain = 0
KDR1 200340Z 21008KT 01/M07 A3025 RMK A01 T00091073  RH  055%=      5-min Rain = 0
KDR1 200345Z 22008KT 01/M07 A3025 RMK A01 T00091071  RH  055%=      5-min Rain = 0
KDR1 200350Z 22008KT 01/M07 A3025 RMK A01 T00091071  RH  055%=      5-min Rain = 0
KDR1 200355Z 22007KT 01/M07 A3025 RMK A01 T00121071  RH  054%=      5-min Rain = 0
KDR1 200400Z 22007KT 01/M07 A3026 RMK A01 T00081070  RH  056%=      5-min Rain = 0
KDR1 200405Z 22008KT 01/M07 A3025 RMK A01 T00091071  RH  055%=      5-min Rain = 0
KDR1 200410Z 21008KT 01/M07 A3024 RMK A01 T00121072  RH  054%=      5-min Rain = 0
KDR1 200415Z 21010G15KT 02/M07 A3024 RMK A01 T00191072  RH  051%=      5-min Rain = 0
KDR1 200420Z 21011KT 03/M07 A3023 RMK A01 T00291074  RH  047%=      5-min Rain = 0
KDR1 200425Z 21011KT 03/M08 A3024 RMK A01 T00301075  RH  046%=      5-min Rain = 0
KDR1 200430Z 21010KT 03/M08 A3024 RMK A01 T00291076  RH  046%=      5-min Rain = 0
KDR1 200435Z 22010KT 02/M07 A3024 RMK A01 T00181074  RH  050%=      5-min Rain = 0
KDR1 200440Z 22010KT 01/M07 A3024 RMK A01 T00131073  RH  053%=      5-min Rain = 0
KDR1 200445Z 22011KT 02/M08 A3024 RMK A01 T00201075  RH  049%=      5-min Rain = 0
KDR1 200450Z 22011KT 03/M08 A3024 RMK A01 T00251078  RH  047%=      5-min Rain = 0
KDR1 200455Z 22011KT 02/M08 A3024 RMK A01 T00161076  RH  051%=      5-min Rain = 0
KDR1 200500Z 22011KT 02/M08 A3023 RMK A01 T00151075  RH  051%=      5-min Rain = 0
KDR1 200505Z 22010KT 02/M07 A3024 RMK A01 T00151074  RH  051%=      5-min Rain = 0
KDR1 200510Z 23009KT 02/M07 A3024 RMK A01 T00151072  RH  053%=      5-min Rain = 0
KDR1 200515Z 23009KT 01/M07 A3025 RMK A01 T00141070  RH  054%=      5-min Rain = 0
KDR1 200520Z 24009KT 01/M07 A3025 RMK A01 T00131068  RH  055%=      5-min Rain = 0
KDR1 200525Z 24010KT 01/M07 A3025 RMK A01 T00111067  RH  056%=      5-min Rain = 0
KDR1 200530Z 23011KT 01/M07 A3024 RMK A01 T00121066  RH  056%=      5-min Rain = 0
KDR1 200535Z 23011KT 01/M07 A3025 RMK A01 T00141065  RH  056%=      5-min Rain = 0
KDR1 200540Z 23011KT 02/M06 A3025 RMK A01 T00191064  RH  054%=      5-min Rain = 0
KDR1 200545Z 24010KT 02/M06 A3025 RMK A01 T00191063  RH  054%=      5-min Rain = 0
KDR1 200550Z 24010KT 02/M06 A3026 RMK A01 T00171062  RH  056%=      5-min Rain = 0
KDR1 200555Z 23011KT 02/M06 A3026 RMK A01 T00211063  RH  054%=      5-min Rain = 0

Page generated in 0.009 seconds.